createdAt,value
2019-01-14T00:00:26.582Z,97.61
2019-01-14T00:02:55.264Z,96.53
2019-01-14T00:05:24.780Z,95.78
2019-01-14T00:07:53.453Z,95.25
2019-01-14T00:10:21.917Z,95.29
2019-01-14T00:12:50.444Z,95.31
2019-01-14T00:15:19.222Z,94.76
2019-01-14T00:17:47.905Z,94.44
2019-01-14T00:20:16.619Z,94.35
2019-01-14T00:22:45.207Z,94.44
2019-01-14T00:25:14.255Z,94.55
2019-01-14T00:27:42.757Z,94.99
2019-01-14T00:30:14.148Z,95.74
2019-01-14T00:32:42.669Z,95.93
2019-01-14T00:35:11.189Z,95.65
2019-01-14T00:37:39.715Z,95.95
2019-01-14T00:40:11.615Z,96.58
2019-01-14T00:42:41.283Z,97.59
2019-01-14T00:45:10.360Z,98.09
2019-01-14T00:47:38.817Z,98.03
2019-01-14T00:50:10.351Z,98.90
2019-01-14T00:52:39.010Z,99.87
2019-01-14T00:55:08.528Z,100.00
2019-01-14T00:57:37.210Z,100.00
2019-01-14T01:00:17.822Z,100.00
2019-01-14T01:02:46.380Z,100.00
2019-01-14T01:05:15.686Z,100.00
2019-01-14T01:07:44.419Z,100.00
2019-01-14T01:10:15.810Z,100.00
2019-01-14T01:12:44.286Z,100.00
2019-01-14T01:15:15.200Z,100.00
2019-01-14T01:17:43.692Z,100.00
2019-01-14T01:20:15.218Z,100.00
2019-01-14T01:22:43.820Z,100.00
2019-01-14T01:25:12.547Z,100.00
2019-01-14T01:27:41.087Z,100.00
2019-01-14T01:30:12.658Z,100.00
2019-01-14T01:32:41.166Z,100.00
2019-01-14T01:35:11.481Z,100.00
2019-01-14T01:37:40.115Z,100.00
2019-01-14T01:40:16.971Z,100.00
2019-01-14T01:42:45.724Z,100.00
2019-01-14T01:45:17.918Z,100.00
2019-01-14T01:47:46.553Z,100.00
2019-01-14T01:50:17.032Z,100.00
2019-01-14T01:52:45.637Z,100.00
2019-01-14T01:55:14.440Z,100.00
2019-01-14T01:57:43.044Z,100.00
2019-01-14T02:00:14.894Z,100.00
2019-01-14T02:02:43.359Z,100.00
2019-01-14T02:05:12.746Z,100.00
2019-01-14T02:07:42.158Z,100.00
2019-01-14T02:10:17.278Z,100.00
2019-01-14T02:12:46.160Z,100.00
2019-01-14T02:15:17.055Z,99.51
2019-01-14T02:17:45.664Z,98.98
2019-01-14T02:20:16.649Z,98.51
2019-01-14T02:22:45.289Z,98.18
2019-01-14T02:25:15.106Z,97.78
2019-01-14T02:27:43.763Z,97.93
2019-01-14T02:30:17.751Z,97.55
2019-01-14T02:32:46.313Z,96.11
2019-01-14T02:35:16.718Z,95.47
2019-01-14T02:37:45.307Z,94.73
2019-01-14T02:40:18.752Z,93.64
2019-01-14T02:42:47.357Z,93.35
2019-01-14T02:45:16.571Z,93.38
2019-01-14T02:47:46.120Z,93.92
2019-01-14T02:50:15.473Z,96.02
2019-01-14T02:52:44.026Z,97.48
2019-01-14T02:55:13.117Z,97.39
2019-01-14T02:57:41.978Z,97.42
2019-01-14T03:00:14.123Z,97.99
2019-01-14T03:02:42.650Z,98.16
2019-01-14T03:05:11.306Z,98.70
2019-01-14T03:07:40.028Z,98.62
2019-01-14T03:10:10.649Z,97.32
2019-01-14T03:12:39.678Z,95.77
2019-01-14T03:15:10.383Z,94.07
2019-01-14T03:17:38.900Z,93.78
2019-01-14T03:20:10.718Z,93.96
2019-01-14T03:22:39.300Z,93.00
2019-01-14T03:25:09.115Z,91.68
2019-01-14T03:27:37.760Z,89.98
2019-01-14T03:30:09.451Z,90.78
2019-01-14T03:32:37.980Z,91.87
2019-01-14T03:35:07.929Z,92.83
2019-01-14T03:37:36.395Z,93.03
2019-01-14T03:40:08.154Z,92.18
2019-01-14T03:42:36.747Z,90.62
2019-01-14T03:45:05.844Z,90.22
2019-01-14T03:47:34.305Z,90.47
2019-01-14T03:50:05.471Z,90.14
2019-01-14T03:52:33.917Z,90.68
2019-01-14T03:55:02.720Z,90.64
2019-01-14T03:57:31.473Z,90.20
2019-01-14T03:59:59.930Z,90.71
2019-01-14T04:02:28.396Z,90.57
2019-01-14T04:04:56.950Z,90.38
2019-01-14T04:07:25.424Z,89.94
2019-01-14T04:09:53.893Z,90.20
2019-01-14T04:12:22.478Z,90.57
2019-01-14T04:14:50.924Z,91.53
2019-01-14T04:17:22.123Z,92.08
2019-01-14T04:19:52.225Z,92.38
2019-01-14T04:22:20.784Z,92.06
2019-01-14T04:24:49.248Z,91.81
2019-01-14T04:27:17.784Z,91.66
2019-01-14T04:29:46.257Z,91.64
2019-01-14T04:32:14.746Z,92.02
2019-01-14T04:34:43.263Z,92.62
2019-01-14T04:37:11.727Z,93.79
2019-01-14T04:39:40.208Z,95.31
2019-01-14T04:42:08.929Z,96.34
2019-01-14T04:44:38.365Z,97.80
2019-01-14T04:47:06.901Z,99.66
2019-01-14T04:49:35.436Z,100.00
2019-01-14T04:52:04.930Z,100.00
2019-01-14T04:54:33.613Z,99.24
2019-01-14T04:57:02.133Z,98.08
2019-01-14T04:59:30.624Z,96.10
2019-01-14T05:01:59.157Z,93.92
2019-01-14T05:04:27.679Z,93.81
2019-01-14T05:06:56.270Z,94.07
2019-01-14T05:09:24.841Z,94.19
2019-01-14T05:11:53.373Z,93.26
2019-01-14T05:14:21.830Z,92.25
2019-01-14T05:16:50.298Z,92.18
2019-01-14T05:19:18.994Z,92.25
2019-01-14T05:21:47.635Z,92.27
2019-01-14T05:24:16.100Z,92.35
2019-01-14T05:26:45.672Z,92.79
2019-01-14T05:29:14.215Z,92.80
2019-01-14T05:31:42.831Z,92.48
2019-01-14T05:34:11.444Z,92.23
2019-01-14T05:36:41.011Z,92.22
2019-01-14T05:39:09.646Z,91.91
2019-01-14T05:41:38.427Z,92.38
2019-01-14T05:44:06.965Z,91.71
2019-01-14T05:46:35.490Z,91.12
2019-01-14T05:49:04.020Z,90.53
2019-01-14T05:51:32.507Z,88.85
2019-01-14T05:54:01.833Z,88.78
2019-01-14T05:56:30.361Z,88.14
2019-01-14T05:58:58.919Z,88.29
2019-01-14T06:01:28.055Z,87.97
2019-01-14T06:03:56.514Z,86.77
2019-01-14T06:06:24.975Z,86.23
2019-01-14T06:08:53.512Z,86.35
2019-01-14T06:11:22.031Z,85.80
2019-01-14T06:13:50.509Z,85.22
2019-01-14T06:16:19.053Z,84.43
2019-01-14T06:18:47.576Z,84.37
2019-01-14T06:21:16.331Z,83.90
2019-01-14T06:23:44.790Z,83.80
2019-01-14T06:26:13.316Z,82.91
2019-01-14T06:28:41.914Z,83.55
2019-01-14T06:31:10.391Z,82.89
2019-01-14T06:33:38.927Z,82.97
2019-01-14T06:36:07.455Z,82.17
2019-01-14T06:38:36.032Z,81.02
2019-01-14T06:41:04.619Z,80.59
2019-01-14T06:43:34.065Z,81.20
2019-01-14T06:46:03.570Z,81.96
2019-01-14T06:48:32.242Z,85.42
2019-01-14T06:51:01.706Z,86.99
2019-01-14T06:53:30.175Z,87.46
2019-01-14T06:55:58.833Z,88.49
2019-01-14T06:58:27.335Z,89.55
2019-01-14T07:00:55.976Z,90.16
2019-01-14T07:03:24.523Z,90.34
2019-01-14T07:05:53.145Z,90.36
2019-01-14T07:08:21.627Z,90.08
2019-01-14T07:10:52.084Z,90.15
2019-01-14T07:13:21.606Z,90.13
2019-01-14T07:15:50.084Z,89.19
2019-01-14T07:18:18.628Z,87.62
2019-01-14T07:20:47.112Z,86.10
2019-01-14T07:23:15.694Z,85.42
2019-01-14T07:25:44.352Z,85.12
2019-01-14T07:28:12.846Z,85.27
2019-01-14T07:30:41.486Z,85.31
2019-01-14T07:33:10.019Z,85.30
2019-01-14T07:35:38.555Z,85.21
2019-01-14T07:38:07.297Z,85.23
2019-01-14T07:40:35.883Z,85.31
2019-01-14T07:43:04.501Z,84.49
2019-01-14T07:45:32.983Z,83.80
2019-01-14T07:48:01.681Z,83.72
2019-01-14T07:50:30.196Z,83.25
2019-01-14T07:52:58.721Z,83.29
2019-01-14T07:55:27.322Z,82.71
2019-01-14T07:57:56.919Z,81.51
2019-01-14T08:00:25.918Z,84.03
2019-01-14T08:02:54.600Z,86.68
2019-01-14T08:05:23.205Z,87.73
2019-01-14T08:07:51.835Z,88.54
2019-01-14T08:10:20.499Z,91.25
2019-01-14T08:12:49.106Z,93.49
2019-01-14T08:15:20.859Z,96.77
2019-01-14T08:24:53.513Z,100.00
2019-01-14T08:27:21.985Z,100.00
2019-01-14T08:29:50.612Z,100.00
2019-01-14T08:32:19.135Z,100.00
2019-01-14T08:34:47.740Z,100.00
2019-01-14T08:37:16.330Z,98.44
2019-01-14T08:39:44.909Z,95.78
2019-01-14T08:42:13.743Z,93.85
2019-01-14T08:44:43.221Z,93.11
2019-01-14T08:47:11.739Z,92.55
2019-01-14T08:49:40.312Z,91.18
2019-01-14T08:52:08.927Z,90.38
2019-01-14T08:54:37.504Z,89.08
2019-01-14T08:57:06.090Z,88.14
2019-01-14T08:59:35.608Z,87.36
2019-01-14T09:02:04.266Z,86.81
2019-01-14T09:04:32.762Z,86.89
2019-01-14T09:07:01.331Z,85.17
2019-01-14T09:09:29.888Z,83.57
2019-01-14T09:12:00.357Z,83.57
2019-01-14T09:14:29.386Z,81.74
2019-01-14T09:16:57.973Z,80.35
2019-01-14T09:19:26.491Z,79.78
2019-01-14T09:21:55.023Z,78.39
2019-01-14T09:24:23.608Z,78.06
2019-01-14T09:26:52.218Z,78.03
2019-01-14T09:29:20.750Z,74.27
2019-01-14T09:31:49.779Z,75.42
2019-01-14T09:34:18.642Z,73.80
2019-01-14T09:36:47.167Z,74.40
2019-01-14T09:39:15.687Z,73.45
2019-01-14T09:41:44.246Z,74.71
2019-01-14T09:44:12.849Z,74.22
2019-01-14T09:46:41.465Z,73.52
2019-01-14T09:49:09.910Z,73.29
2019-01-14T09:51:39.342Z,73.87
2019-01-14T09:54:08.109Z,70.85
2019-01-14T09:56:36.648Z,71.74
2019-01-14T09:59:05.171Z,71.74
2019-01-14T10:01:34.654Z,70.79
2019-01-14T10:04:04.220Z,70.38
2019-01-14T10:06:32.912Z,70.97
2019-01-14T10:09:01.428Z,70.30
2019-01-14T10:11:29.885Z,70.30
2019-01-14T10:13:58.347Z,69.74
2019-01-14T10:16:27.934Z,71.84
2019-01-14T10:18:56.404Z,72.19
2019-01-14T10:21:24.903Z,74.55
2019-01-14T10:23:53.515Z,72.22
2019-01-14T10:26:22.056Z,72.74
2019-01-14T10:28:50.519Z,72.70
2019-01-14T10:31:20.056Z,71.09
2019-01-14T10:33:48.608Z,73.07
2019-01-14T10:36:17.080Z,72.55
2019-01-14T10:38:50.347Z,73.75
2019-01-14T10:41:16.212Z,74.06
2019-01-14T10:43:44.790Z,73.96
2019-01-14T10:46:13.337Z,75.00
2019-01-14T10:48:41.868Z,73.15
2019-01-14T10:51:10.400Z,73.55
2019-01-14T10:53:38.908Z,74.00
2019-01-14T10:56:07.442Z,74.59
2019-01-14T10:58:35.894Z,72.94
2019-01-14T11:01:04.637Z,72.34
2019-01-14T11:03:34.121Z,71.23
2019-01-14T11:06:02.809Z,71.80
2019-01-14T11:08:32.372Z,71.89
2019-01-14T11:11:00.834Z,71.25
2019-01-14T11:13:29.292Z,73.18
2019-01-14T11:15:58.278Z,75.11
2019-01-14T11:18:26.827Z,75.40
2019-01-14T11:20:55.342Z,73.65
2019-01-14T11:23:23.872Z,72.29
2019-01-14T11:25:52.402Z,71.42
2019-01-14T11:28:21.002Z,72.51
2019-01-14T11:30:49.567Z,71.46
2019-01-14T11:33:19.054Z,73.08
2019-01-14T11:35:48.651Z,73.30
2019-01-14T11:38:39.002Z,73.34
2019-01-14T11:41:07.532Z,70.52
2019-01-14T11:43:35.991Z,70.76
2019-01-14T11:46:04.844Z,70.28
2019-01-14T11:48:33.440Z,70.33
2019-01-14T11:51:02.153Z,68.85
2019-01-14T11:53:30.788Z,70.68
2019-01-14T11:55:59.244Z,69.33
2019-01-14T11:58:27.767Z,66.73
2019-01-14T12:00:56.356Z,65.01
2019-01-14T12:03:24.949Z,64.99
2019-01-14T12:05:53.589Z,66.84
2019-01-14T12:08:22.249Z,65.55
2019-01-14T12:10:50.867Z,65.10
2019-01-14T12:13:19.328Z,63.57
2019-01-14T12:15:47.906Z,59.90
2019-01-14T12:18:17.385Z,62.04
2019-01-14T12:20:46.830Z,59.68
2019-01-14T12:23:15.444Z,59.44
2019-01-14T12:25:43.925Z,59.03
2019-01-14T12:28:12.455Z,56.96
2019-01-14T12:30:41.777Z,55.85
2019-01-14T12:33:10.447Z,54.89
2019-01-14T12:35:38.971Z,55.84
2019-01-14T12:38:08.133Z,54.38
2019-01-14T12:40:36.647Z,57.09
2019-01-14T12:43:05.445Z,54.49
2019-01-14T12:45:34.410Z,56.22
2019-01-14T12:48:03.091Z,56.54
2019-01-14T12:50:31.630Z,56.56
2019-01-14T12:53:00.247Z,55.35
2019-01-14T12:55:28.779Z,55.28
2019-01-14T12:57:57.293Z,56.43
2019-01-14T13:00:27.771Z,58.97
2019-01-14T13:02:58.520Z,56.19
2019-01-14T13:05:28.543Z,65.63
2019-01-14T13:07:58.015Z,72.78
2019-01-14T13:10:26.471Z,76.07
2019-01-14T13:12:55.041Z,78.55
2019-01-14T13:15:25.588Z,79.33
2019-01-14T13:17:54.315Z,80.41
2019-01-14T13:20:23.418Z,78.89
2019-01-14T13:22:52.174Z,78.57
2019-01-14T13:25:21.190Z,76.67
2019-01-14T13:27:49.992Z,77.10
2019-01-14T13:30:24.155Z,76.28
2019-01-14T13:32:52.782Z,75.32
2019-01-14T13:35:21.284Z,75.71
2019-01-14T13:37:56.495Z,73.66
2019-01-14T13:40:25.049Z,71.71
2019-01-14T13:42:53.600Z,69.73
2019-01-14T13:45:23.249Z,67.08
2019-01-14T13:47:51.759Z,65.64
2019-01-14T13:50:22.842Z,62.72
2019-01-14T13:52:51.496Z,57.05
2019-01-14T13:55:20.586Z,54.55
2019-01-14T13:57:49.174Z,53.41
2019-01-14T14:00:20.240Z,52.49
2019-01-14T14:02:48.791Z,55.23
2019-01-14T14:05:17.303Z,57.72
2019-01-14T14:07:45.898Z,55.23
2019-01-14T14:10:21.178Z,56.41
2019-01-14T14:12:49.719Z,56.82
2019-01-14T14:15:19.289Z,57.38
2019-01-14T14:17:47.999Z,59.92
2019-01-14T14:20:18.109Z,63.39
2019-01-14T14:22:46.632Z,72.03
2019-01-14T14:25:15.263Z,73.80
2019-01-14T14:27:43.784Z,80.36
2019-01-14T14:30:21.226Z,86.57
2019-01-14T14:32:49.682Z,91.16
2019-01-14T14:35:21.047Z,94.43
2019-01-14T14:37:50.695Z,96.60
2019-01-14T14:40:19.166Z,99.83
2019-01-14T14:42:47.697Z,99.83
2019-01-14T14:45:16.657Z,100.00
2019-01-14T14:47:45.279Z,100.00
2019-01-14T14:50:18.436Z,100.00
2019-01-14T14:52:47.394Z,100.00
2019-01-14T14:55:16.533Z,100.00
2019-01-14T14:57:45.161Z,100.00
2019-01-14T15:00:21.305Z,100.00
2019-01-14T15:02:49.944Z,100.00
2019-01-14T15:05:19.437Z,100.00
2019-01-14T15:07:48.303Z,100.00
2019-01-14T15:10:18.962Z,100.00
2019-01-14T15:12:49.394Z,100.00
2019-01-14T15:15:19.676Z,100.00
2019-01-14T15:17:48.293Z,100.00
2019-01-14T15:20:19.341Z,100.00
2019-01-14T15:22:47.949Z,100.00
2019-01-14T15:25:16.504Z,100.00
2019-01-14T15:27:45.931Z,100.00
2019-01-14T15:30:20.284Z,100.00
2019-01-14T15:32:48.812Z,100.00
2019-01-14T15:35:17.385Z,100.00
2019-01-14T15:37:46.840Z,100.00
2019-01-14T15:40:17.552Z,100.00
2019-01-14T15:42:46.266Z,100.00
2019-01-14T15:45:18.833Z,100.00
2019-01-14T15:47:47.451Z,100.00
2019-01-14T15:50:16.169Z,99.13
2019-01-14T15:52:44.773Z,98.15
2019-01-14T15:55:21.598Z,97.96
2019-01-14T15:57:51.536Z,97.38
2019-01-14T16:00:20.461Z,96.96
2019-01-14T16:02:49.229Z,96.29
2019-01-14T16:05:19.153Z,95.69
2019-01-14T16:07:48.043Z,94.79
2019-01-14T16:10:22.911Z,93.91
2019-01-14T16:12:51.437Z,92.86
2019-01-14T16:15:20.835Z,91.94
2019-01-14T16:17:49.467Z,91.31
2019-01-14T16:20:22.629Z,90.59
2019-01-14T16:22:51.095Z,89.66
2019-01-14T16:25:19.623Z,88.62
2019-01-14T16:27:48.475Z,88.55
2019-01-14T16:30:19.256Z,88.08
2019-01-14T16:32:48.825Z,87.34
2019-01-14T16:35:17.494Z,86.89
2019-01-14T16:37:46.499Z,86.51
2019-01-14T16:40:18.237Z,86.44
2019-01-14T16:42:46.417Z,86.59
2019-01-14T16:45:20.384Z,86.43
2019-01-14T16:47:48.872Z,86.48
2019-01-14T16:50:17.787Z,86.67
2019-01-14T16:52:46.340Z,86.94
2019-01-14T16:55:16.565Z,87.15
2019-01-14T16:57:45.113Z,87.29
2019-01-14T17:00:16.373Z,87.79
2019-01-14T17:02:45.149Z,87.91
2019-01-14T17:05:14.500Z,88.13
2019-01-14T17:07:43.136Z,88.25
2019-01-14T17:10:16.229Z,88.26
2019-01-14T17:12:45.005Z,88.16
2019-01-14T17:15:14.121Z,88.13
2019-01-14T17:17:43.556Z,87.98
2019-01-14T17:20:18.368Z,87.97
2019-01-14T17:22:47.475Z,88.10
2019-01-14T17:25:16.783Z,87.96
2019-01-14T17:27:45.447Z,87.67
2019-01-14T17:30:15.984Z,87.18
2019-01-14T17:32:44.971Z,86.90
2019-01-14T17:35:14.603Z,86.88
2019-01-14T17:37:43.247Z,86.93
2019-01-14T17:40:14.299Z,86.83
2019-01-14T17:42:42.832Z,86.62
2019-01-14T17:45:11.839Z,86.48
2019-01-14T17:47:40.647Z,86.51
2019-01-14T17:50:12.182Z,86.31
2019-01-14T17:52:40.719Z,86.27
2019-01-14T17:55:09.613Z,86.29
2019-01-14T17:57:38.146Z,86.00
2019-01-14T18:00:18.612Z,86.05
2019-01-14T18:02:47.276Z,86.15
2019-01-14T18:05:15.920Z,86.13
2019-01-14T18:07:44.487Z,86.29
2019-01-14T18:10:15.623Z,86.16
2019-01-14T18:12:44.162Z,86.30
2019-01-14T18:15:13.208Z,86.15
2019-01-14T18:17:42.935Z,86.18
2019-01-14T18:20:14.234Z,86.18
2019-01-14T18:22:43.721Z,86.10
2019-01-14T18:25:12.518Z,86.10
2019-01-14T18:27:41.026Z,86.08
2019-01-14T18:30:18.012Z,86.25
2019-01-14T18:32:46.755Z,85.92
2019-01-14T18:35:17.181Z,85.69
2019-01-14T18:37:46.666Z,85.45
2019-01-14T18:40:16.665Z,85.31
2019-01-14T18:42:45.274Z,84.55
2019-01-14T18:45:15.850Z,83.76
2019-01-14T18:47:44.578Z,83.12
2019-01-14T18:50:15.483Z,82.67
2019-01-14T18:52:44.087Z,82.19
2019-01-14T18:55:12.896Z,82.20
2019-01-14T18:57:41.348Z,82.07
2019-01-14T19:00:13.295Z,81.75
2019-01-14T19:02:41.767Z,81.28
2019-01-14T19:05:10.311Z,81.25
2019-01-14T19:07:38.899Z,80.85
2019-01-14T19:10:10.192Z,80.66
2019-01-14T19:12:38.715Z,79.96
2019-01-14T19:15:10.318Z,80.24
2019-01-14T19:17:38.891Z,80.26
2019-01-14T19:20:10.406Z,80.79
2019-01-14T19:22:39.167Z,81.28
2019-01-14T19:25:08.556Z,82.04
2019-01-14T19:27:37.100Z,82.20
2019-01-14T19:30:08.673Z,82.63
2019-01-14T19:32:38.550Z,82.85
2019-01-14T19:35:07.614Z,83.25
2019-01-14T19:37:36.630Z,83.62
2019-01-14T19:40:08.162Z,83.91
2019-01-14T19:42:36.626Z,84.16
2019-01-14T19:45:06.787Z,84.34
2019-01-14T19:47:35.253Z,84.60
2019-01-14T19:50:07.043Z,84.47
2019-01-14T19:52:35.575Z,84.46
2019-01-14T19:55:05.075Z,84.10
2019-01-14T19:57:33.625Z,83.84
2019-01-14T20:00:02.151Z,83.63
2019-01-14T20:02:30.647Z,83.59
2019-01-14T20:04:59.156Z,82.94
2019-01-14T20:07:27.702Z,82.37
2019-01-14T20:09:56.165Z,82.27
2019-01-14T20:12:24.809Z,81.98
2019-01-14T20:14:53.338Z,82.04
2019-01-14T20:17:21.806Z,81.84
2019-01-14T20:19:50.289Z,81.79
2019-01-14T20:22:18.980Z,81.81
2019-01-14T20:24:48.628Z,81.50
2019-01-14T20:27:17.111Z,81.70
2019-01-14T20:29:45.653Z,81.48
2019-01-14T20:32:14.201Z,81.24
2019-01-14T20:34:42.744Z,81.05
2019-01-14T20:37:12.406Z,81.07
2019-01-14T20:39:40.934Z,80.99
2019-01-14T20:42:09.471Z,80.93
2019-01-14T20:44:38.010Z,81.03
2019-01-14T20:47:07.451Z,81.32
2019-01-14T20:49:35.920Z,81.42
2019-01-14T20:52:04.505Z,81.13
2019-01-14T20:54:33.057Z,81.10
2019-01-14T20:57:04.791Z,81.27
2019-01-14T20:59:38.350Z,81.31
2019-01-14T21:02:04.988Z,81.29
2019-01-14T21:04:33.465Z,81.39
2019-01-14T21:07:02.213Z,81.55
2019-01-14T21:09:30.684Z,81.66
2019-01-14T21:11:59.169Z,81.86
2019-01-14T21:14:29.076Z,82.18
2019-01-14T21:16:57.579Z,82.20
2019-01-14T21:19:26.073Z,82.00
2019-01-14T21:21:54.727Z,82.25
2019-01-14T21:24:24.179Z,82.74
2019-01-14T21:26:52.893Z,82.93
2019-01-14T21:29:25.938Z,83.59
2019-01-14T21:31:51.697Z,84.31
2019-01-14T21:34:20.243Z,85.01
2019-01-14T21:36:48.897Z,85.28
2019-01-14T21:39:17.382Z,85.55
2019-01-14T21:41:45.965Z,85.52
2019-01-14T21:44:14.495Z,85.57
2019-01-14T21:46:43.158Z,85.64
2019-01-14T21:49:11.623Z,85.85
2019-01-14T21:51:40.321Z,85.82
2019-01-14T21:54:08.917Z,85.51
2019-01-14T21:56:38.910Z,85.26
2019-01-14T21:59:07.687Z,85.02
2019-01-14T22:01:36.158Z,84.97
2019-01-14T22:04:04.983Z,84.66
2019-01-14T22:06:33.519Z,84.42
2019-01-14T22:09:02.163Z,84.34
2019-01-14T22:11:30.623Z,84.31
2019-01-14T22:13:59.221Z,83.91
2019-01-14T22:16:27.859Z,83.68
2019-01-14T22:18:57.335Z,83.46
2019-01-14T22:21:25.850Z,83.42
2019-01-14T22:23:54.405Z,83.39
2019-01-14T22:26:22.919Z,83.44
2019-01-14T22:28:52.361Z,83.19
2019-01-14T22:31:20.877Z,83.05
2019-01-14T22:33:49.337Z,82.91
2019-01-14T22:36:17.888Z,82.62
2019-01-14T22:38:46.431Z,82.32
2019-01-14T22:41:15.890Z,82.00
2019-01-14T22:43:44.444Z,81.56
2019-01-14T22:46:13.012Z,81.34
2019-01-14T22:48:41.484Z,81.28
2019-01-14T22:51:10.452Z,81.38
2019-01-14T22:53:39.003Z,81.07
2019-01-14T22:56:07.734Z,80.86
2019-01-14T22:58:36.303Z,80.88
2019-01-14T23:01:09.473Z,80.94
2019-01-14T23:03:39.081Z,80.56
2019-01-14T23:06:07.614Z,80.08
2019-01-14T23:08:36.223Z,80.56
2019-01-14T23:11:05.150Z,80.68
2019-01-14T23:13:33.725Z,80.58
2019-01-14T23:16:02.255Z,80.72
2019-01-14T23:18:30.716Z,80.62
2019-01-14T23:20:59.355Z,79.87
2019-01-14T23:23:27.827Z,80.21
2019-01-14T23:25:58.279Z,80.43
2019-01-14T23:28:26.965Z,79.94
2019-01-14T23:30:56.436Z,80.06
2019-01-14T23:33:24.991Z,79.73
2019-01-14T23:35:53.580Z,80.31
2019-01-14T23:38:22.042Z,80.31
2019-01-14T23:40:50.817Z,80.20
2019-01-14T23:43:19.485Z,80.19
2019-01-14T23:45:48.007Z,80.82
2019-01-14T23:48:16.502Z,80.77
2019-01-14T23:50:45.047Z,80.77
2019-01-14T23:53:13.527Z,81.07
2019-01-14T23:55:41.980Z,80.82
2019-01-14T23:58:10.501Z,81.17
